Latest Weather Observations for Kapooka (Defence)

IDN60801

Issued at 5:32 pm EDT Thursday 23 November 2017 (issued every 30 minutes, with the page automatically refreshed every 10 minutes)

About weather observations | Map of weather stations | Latest weather observations for NSW | Other Formats
Station Details ID: 074272 Name: KAPOOKA (DEFENCE) Lat: -35.13 Lon: 147.25 Height: 187.0 m
Data from the previous 72 hours. | See also: Recent months at Kapooka (Defence)
Date/Time
EDT
Temp
°C
App
Temp
°C
Dew
Point
°C
Rel
Hum
%
Delta-T
°C
Wind Press
QNH
hPa
Press
MSL
hPa
Rain since
9am
mm
Dir  Spd
km/h
Gust
km/h
Spd
kts
Gust
kts
23/05:30pm 31.7 29.9 5.3 19 14.1 W 4 9 2 5 - - 0.0
23/05:00pm 31.2 28.7 4.9 19 13.9 NW 7 15 4 8 - - 0.0
23/04:30pm 31.7 28.4 4.5 18 14.3 NNW 11 17 6 9 - - 0.0
23/04:00pm 31.6 29.3 5.9 20 13.8 W 7 19 4 10 - - 0.0
23/03:30pm 29.6 26.4 5.0 21 12.9 N 11 28 6 15 - - 0.0
23/03:00pm 31.7 28.7 6.0 20 13.8 NW 11 19 6 10 - - 0.0
23/02:30pm 29.6 27.4 6.3 23 12.5 NNW 7 15 4 8 - - 0.0
23/02:00pm 29.4 26.8 6.1 23 12.4 WNW 9 19 5 10 - - 0.0
23/01:30pm 29.9 27.0 6.5 23 12.6 NW 11 24 6 13 - - 0.0
23/01:00pm 29.1 25.7 5.9 23 12.3 NNW 13 20 7 11 - - 0.0
23/12:30pm 30.4 28.1 7.6 24 12.5 NNW 9 24 5 13 - - 0.0
23/12:00pm 29.1 26.9 9.3 29 11.1 N 11 22 6 12 - - 0.0
23/11:30am 27.9 25.4 9.7 32 10.2 N 13 22 7 12 - - 0.0
23/11:00am 27.8 24.6 10.1 33 10.0 N 17 30 9 16 - - 0.0
23/10:30am 26.4 22.9 10.1 36 9.1 NNE 19 26 10 14 - - 0.0
23/10:00am 25.8 22.8 10.8 39 8.5 N 17 28 9 15 - - 0.0
23/09:30am 24.6 21.3 11.5 44 7.5 NNE 20 28 11 15 - - 0.0
23/09:00am 23.2 19.9 11.6 48 6.6 NNE 20 30 11 16 - - 0.0
23/08:30am 21.8 18.3 12.1 54 5.5 NE 22 30 12 16 - - 0.0
23/08:00am 20.6 17.8 12.6 60 4.6 NE 19 24 10 13 - - 0.0
23/07:30am 19.6 17.4 12.1 62 4.2 NE 15 24 8 13 - - 0.0
23/07:00am 18.7 17.4 12.5 67 3.5 NNE 11 17 6 9 - - 0.0
23/06:30am 18.2 17.2 12.4 69 3.3 NE 9 15 5 8 - - 0.0
23/06:00am 16.9 16.2 12.0 73 2.7 N 7 11 4 6 - - 0.0
23/05:30am 18.4 16.2 12.2 67 3.5 NE 15 20 8 11 - - 0.0
23/05:00am 18.8 16.2 12.1 65 3.7 NE 17 22 9 12 - - 0.0
23/04:30am 18.7 16.9 12.2 66 3.6 ENE 13 20 7 11 - - 0.0
23/04:00am 19.1 16.2 12.4 65 3.8 ENE 19 24 10 13 - - 0.0
23/03:30am 19.3 15.4 12.1 63 4.0 ENE 24 32 13 17 - - 0.0
23/03:00am 19.7 15.7 11.7 60 4.5 E 24 32 13 17 - - 0.0
23/02:30am 20.0 16.3 11.5 58 4.7 E 22 28 12 15 - - 0.0
23/02:00am 20.0 16.6 10.7 55 5.1 ENE 19 26 10 14 - - 0.0
23/01:30am 20.2 16.4 9.2 49 5.9 E 19 26 10 14 - - 0.0
23/01:00am 21.1 15.8 8.4 44 6.7 E 26 33 14 18 - - 0.0
23/12:30am 21.7 18.4 8.2 42 7.1 ESE 15 32 8 17 - - 0.0
23/12:29am 21.5 18.7 8.4 43 6.9 ESE 13 32 7 17 - - 0.0
23/12:00am 16.2 14.6 6.3 52 4.9 WNW 4 6 2 3 - - 0.0
 
Date/Time
EDT
Temp
°C
App
Temp
°C
Dew
Point
°C
Rel
Hum
%
Delta-T
°C
Wind Press
QNH
hPa
Press
MSL
hPa
Rain since
9am
mm
Dir  Spd
km/h
Gust
km/h
Spd
kts
Gust
kts
22/11:30pm 17.2 15.4 7.3 52 5.0 NNW 6 7 3 4 - - 0.0
22/11:00pm 19.0 18.0 5.8 42 6.6 CALM 0 0 0 0 - - 0.0
22/10:30pm 21.9 19.0 4.5 32 8.6 ENE 9 13 5 7 - - 0.0
22/10:00pm 23.3 19.6 4.3 29 9.4 E 13 17 7 9 - - 0.0
22/09:30pm 23.2 19.5 4.7 30 9.3 E 13 15 7 8 - - 0.0
22/09:00pm 23.3 20.1 5.2 31 9.1 E 11 13 6 7 - - 0.0
22/08:30pm 23.8 20.6 5.2 30 9.4 E 11 13 6 7 - - 0.0
22/08:00pm 26.1 23.1 4.0 24 11.1 ENE 9 13 5 7 - - 0.0
22/07:30pm 27.5 24.6 4.5 23 11.8 ENE 9 15 5 8 - - 0.0
22/07:00pm 28.1 24.9 5.0 23 12.0 NE 11 17 6 9 - - 0.0
22/06:30pm 29.1 25.5 5.2 22 12.5 NE 13 24 7 13 - - 0.0
22/06:00pm 29.5 26.0 5.6 22 12.6 ENE 13 20 7 11 - - 0.0
22/05:30pm 29.6 27.3 5.0 21 12.9 SW 6 13 3 7 - - 0.0
22/05:00pm 30.1 26.6 5.4 21 13.1 ENE 13 22 7 12 - - 0.0
22/04:30pm 29.4 26.9 4.8 21 12.8 ESE 7 17 4 9 - - 0.0
22/04:00pm 29.8 27.9 6.5 23 12.5 NE 6 13 3 7 - - 0.0
22/03:30pm 30.3 28.3 6.2 22 12.9 W 6 13 3 7 - - 0.0
22/03:00pm 29.5 26.5 6.2 23 12.4 S 11 20 6 11 - - 0.0
22/02:30pm 28.6 25.5 5.5 23 12.1 E 11 20 6 11 - - 0.0
22/02:00pm 28.1 26.1 6.2 25 11.6 W 6 13 3 7 - - 0.0
22/01:30pm 28.1 25.8 5.6 24 11.8 NNW 7 15 4 8 - - 0.0
22/01:00pm 27.1 24.4 5.4 25 11.3 N 9 15 5 8 - - 0.0
22/12:30pm 26.5 24.3 6.0 27 10.7 ENE 7 22 4 12 - - 0.0
22/12:00pm 26.6 23.0 6.6 28 10.6 NNE 15 24 8 13 - - 0.0
22/11:30am 25.6 22.1 7.2 31 9.8 NE 15 24 8 13 - - 0.0
22/11:00am 24.7 21.9 8.6 36 8.7 NE 13 20 7 11 - - 0.0
22/10:30am 23.9 20.7 8.3 37 8.4 NNE 15 26 8 14 - - 0.0
22/10:00am 22.7 18.6 8.8 41 7.5 NE 20 30 11 16 - - 0.0
22/09:30am 22.0 17.7 9.2 44 6.9 NNE 22 30 12 16 - - 0.0
22/09:00am 21.2 17.6 9.8 48 6.2 NE 19 30 10 16 - - 0.0
22/08:30am 19.4 15.7 10.1 55 5.0 ENE 20 30 11 16 - - 0.0
22/08:00am 18.6 14.5 10.2 58 4.5 ENE 22 32 12 17 - - 0.0
22/07:30am 18.0 14.9 10.4 61 4.1 ENE 17 26 9 14 - - 0.0
22/07:00am 16.8 14.5 10.4 66 3.4 ENE 13 19 7 10 - - 0.0
22/06:30am 16.5 12.5 10.4 67 3.3 NE 22 32 12 17 - - 0.0
22/06:00am 16.3 12.9 10.6 69 3.1 NE 19 26 10 14 - - 0.0
22/05:30am 16.6 13.0 10.5 67 3.3 NE 20 30 11 16 - - 0.0
22/05:00am 16.8 13.4 10.6 67 3.3 NE 19 28 10 15 - - 0.0
22/04:30am 17.4 14.0 10.5 64 3.7 NE 19 30 10 16 - - 0.0
22/04:00am 17.7 14.3 10.6 63 3.8 ENE 19 30 10 16 - - 0.0
22/03:30am 18.3 14.7 10.7 61 4.1 ENE 20 26 11 14 - - 0.0
22/03:00am 18.8 15.4 10.4 58 4.6 ENE 19 26 10 14 - - 0.0
22/02:30am 19.3 16.2 10.3 56 4.9 ENE 17 28 9 15 - - 0.0
22/02:00am 19.9 15.4 10.0 53 5.4 NE 24 33 13 18 - - 0.0
22/01:30am 20.6 16.0 9.8 50 5.8 NE 24 33 13 18 - - 0.0
22/01:00am 21.0 16.8 8.3 44 6.7 ENE 20 26 11 14 - - 0.0
22/12:30am 21.6 17.4 7.4 40 7.4 ENE 19 28 10 15 - - 0.0
22/12:00am 22.3 17.8 6.1 35 8.3 ENE 19 26 10 14 - - 0.0
 
Date/Time
EDT
Temp
°C
App
Temp
°C
Dew
Point
°C
Rel
Hum
%
Delta-T
°C
Wind Press
QNH
hPa
Press
MSL
hPa
Rain since
9am
mm
Dir  Spd
km/h
Gust
km/h
Spd
kts
Gust
kts
21/11:30pm 22.9 18.6 5.3 32 8.9 ENE 17 26 9 14 - - 0.0
21/11:00pm 22.4 19.2 4.9 32 8.7 ENE 11 15 6 8 - - 0.0
21/10:30pm 23.7 20.0 4.6 29 9.6 E 13 20 7 11 - - 0.0
21/10:00pm 24.1 19.9 4.0 27 10.0 ENE 15 20 8 11 - - 0.0
21/09:30pm 23.9 20.2 4.3 28 9.8 ENE 13 17 7 9 - - 0.0
21/09:00pm 21.9 18.7 4.9 33 8.5 E 11 13 6 7 - - 0.0
21/08:30pm 21.8 19.1 3.9 31 8.7 ESE 7 11 4 6 - - 0.0
21/08:00pm 22.8 20.3 3.9 29 9.3 ESE 6 7 3 4 - - 0.0
21/07:30pm 27.2 24.2 2.3 20 12.2 SE 7 11 4 6 - - 0.0
21/07:00pm 28.3 25.3 0.9 17 13.2 ESE 6 9 3 5 - - 0.0
21/06:30pm 28.4 25.4 1.8 18 13.1 ENE 7 15 4 8 - - 0.0
21/06:00pm 29.0 25.2 1.5 17 13.5 ENE 11 17 6 9 - - 0.0
21/05:30pm 29.5 25.1 0.2 15 14.1 ENE 13 24 7 13 - - 0.0
21/05:00pm 29.9 25.8 -0.5 14 14.5 ENE 11 20 6 11 - - 0.0
21/04:30pm 29.9 26.1 -0.5 14 14.5 ENE 9 24 5 13 - - 0.0
21/04:00pm 30.2 26.3 -1.2 13 14.8 NNE 9 28 5 15 - - 0.0
21/03:30pm 29.5 26.0 1.1 16 13.9 NNE 9 17 5 9 - - 0.0
21/03:00pm 29.3 26.0 2.5 18 13.4 ENE 9 15 5 8 - - 0.0
21/02:30pm 28.7 25.2 3.5 20 12.8 NE 11 20 6 11 - - 0.0
21/02:00pm 28.1 24.8 2.3 19 12.8 NE 9 19 5 10 - - 0.0
21/01:30pm 28.1 24.8 4.4 22 12.2 ENE 11 20 6 11 - - 0.0
21/01:00pm 27.4 24.4 6.2 26 11.2 NE 11 19 6 10 - - 0.0
21/12:30pm 26.5 22.9 4.9 25 11.1 NE 13 24 7 13 - - 0.0
21/12:00pm 26.3 23.0 6.4 28 10.5 ENE 13 46 7 25 - - 0.0
21/11:30am 24.9 21.4 7.1 32 9.4 ENE 15 26 8 14 - - 0.0
21/11:00am 23.9 20.2 7.9 36 8.5 ENE 17 24 9 13 - - 0.0
21/10:30am 23.3 19.7 8.2 38 8.1 ENE 17 24 9 13 - - 0.0
21/10:00am 21.7 18.0 7.9 41 7.3 NE 17 24 9 13 - - 0.0
21/09:30am 21.0 17.8 8.6 45 6.6 NE 15 24 8 13 - - 0.0
21/09:00am 20.0 17.5 9.6 51 5.6 ENE 13 24 7 13 - - 0.0
21/08:30am 18.9 14.9 9.1 53 5.2 NNE 20 30 11 16 - - 0.0
21/08:00am 18.0 13.0 9.6 58 4.5 NE 26 37 14 20 - - 0.0
21/07:30am 17.0 13.8 9.9 63 3.8 NE 17 28 9 15 - - 0.0
21/07:00am 16.1 14.5 10.2 68 3.1 NNE 9 15 5 8 - - 0.0
21/06:30am 15.5 12.8 10.3 71 2.8 NE 15 22 8 12 - - 0.0
21/06:00am 15.3 12.3 10.5 73 2.6 NE 17 24 9 13 - - 0.0
21/05:30am 15.8 13.7 11.0 73 2.6 NE 13 26 7 14 - - 0.0
21/05:00am 15.5 14.3 11.5 77 2.2 NNE 9 17 5 9 - - 0.0
21/04:30am 15.8 14.5 11.2 74 2.5 NNE 9 20 5 11 - - 0.0
21/04:00am 16.5 15.6 11.4 72 2.8 NE 7 13 4 7 - - 0.0
21/03:30am 17.9 15.1 11.5 66 3.5 NE 17 26 9 14 - - 0.0
21/03:00am 17.9 16.0 11.7 67 3.4 NE 13 20 7 11 - - 0.0
21/02:30am 18.3 15.6 11.6 65 3.7 NE 17 20 9 11 - - 0.0
21/02:00am 19.4 15.8 11.7 61 4.3 NE 22 28 12 15 - - 0.0
21/01:30am 20.1 16.1 11.8 59 4.6 ENE 24 33 13 18 - - 0.0
21/01:00am 20.8 15.9 11.4 55 5.2 NE 28 37 15 20 - - 0.0
21/12:47am 21.2 16.3 11.2 53 5.6 ENE 28 43 15 23 - - 0.0
21/12:30am 21.3 17.8 10.2 49 6.1 ENE 19 24 10 13 - - 0.0
21/12:00am 21.1 19.1 10.3 50 5.9 ENE 11 15 6 8 - - 0.0
 
Date/Time
EDT
Temp
°C
App
Temp
°C
Dew
Point
°C
Rel
Hum
%
Delta-T
°C
Wind Press
QNH
hPa
Press
MSL
hPa
Rain since
9am
mm
Dir  Spd
km/h
Gust
km/h
Spd
kts
Gust
kts
20/11:30pm 20.8 19.1 10.0 50 5.9 ENE 9 11 5 6 - - 0.0
20/11:00pm 22.2 20.5 9.7 45 6.8 ENE 9 17 5 9 - - 0.0
20/10:30pm 23.1 20.8 9.1 41 7.6 ENE 11 17 6 9 - - 0.0
20/10:00pm 24.6 21.2 9.0 37 8.5 E 17 22 9 12 - - 0.0
20/09:30pm 24.9 21.4 8.8 36 8.8 E 17 28 9 15 - - 0.0
20/09:00pm 25.4 22.8 9.3 36 8.9 E 13 24 7 13 - - 0.0
20/08:30pm 25.6 22.9 9.0 35 9.1 E 13 22 7 12 - - 0.0
20/08:00pm 25.9 23.5 8.8 34 9.4 ESE 11 19 6 10 - - 0.0
20/07:30pm 26.9 25.1 9.3 33 9.8 E 9 15 5 8 - - 0.0
20/07:00pm 27.8 25.3 9.6 32 10.2 ENE 13 20 7 11 - - 0.0
20/06:30pm 28.3 26.0 9.1 30 10.7 NE 11 17 6 9 - - 0.0
20/06:00pm 28.6 25.0 8.3 28 11.2 NE 17 24 9 13 - - 0.0

Other Formats:

Comma delimited format used in spreadsheet applications
http://www.bom.gov.au/fwo/IDN60801/IDN60801.94944.axf

JavaScript Object Notation format (JSON) in row-major order
http://www.bom.gov.au/fwo/IDN60801/IDN60801.94944.json